Time;durP1;ratioP1;P1;durP2;ratioP2;P2;SDS_P1;SDS_P2;PMS_P1;PMS_P2;Temp;Humidity;BMP_temperature;BMP_pressure;BME280_temperature;BME280_humidity;BME280_pressure;Samples;Min_cycle;Max_cycle;Signal;HPM_P1;HPM_P2
2021/07/23 00:01:04;;;;;;;25.97;13.18;;;;;;;14.49;88.55;98380.46;1605534;89;21167;-76
2021/07/23 00:03:30;;;;;;;20.97;11.83;;;;;;;14.56;87.86;98379.54;1605542;88;20957;-72
2021/07/23 00:05:57;;;;;;;61.33;31.87;;;;;;;14.58;88.54;98377.87;1553868;92;20999;-72
2021/07/23 00:08:23;;;;;;;28.42;15.98;;;;;;;14.59;89.29;98380.85;1605585;88;21043;-76
2021/07/23 00:10:49;;;;;;;30.35;17.95;;;;;;;14.60;88.50;98377.83;1553995;92;20924;-76
2021/07/23 00:13:15;;;;;;;18.07;11.48;;;;;;;14.63;88.32;98374.52;1608001;87;22020;-72
2021/07/23 00:15:40;;;;;;;17.85;11.55;;;;;;;14.62;88.58;98379.72;1610479;87;20957;-72
2021/07/23 00:18:06;;;;;;;20.97;12.15;;;;;;;14.67;87.50;98369.27;1610282;87;20932;-76
2021/07/23 00:20:32;;;;;;;17.37;10.18;;;;;;;14.61;89.08;98366.36;1609546;89;20956;-77
2021/07/23 00:22:58;;;;;;;13.95;9.45;;;;;;;14.57;88.33;98368.88;1609713;87;20972;-72
2021/07/23 00:25:24;;;;;;;17.42;9.68;;;;;;;14.56;88.18;98370.00;1609765;88;21974;-76
2021/07/23 00:27:50;;;;;;;13.40;9.25;;;;;;;14.52;88.56;98367.59;1609655;87;20901;-72
2021/07/23 00:30:16;;;;;;;15.18;9.73;;;;;;;14.55;87.22;98367.57;1609892;88;20932;-76
2021/07/23 00:32:42;;;;;;;18.37;9.83;;;;;;;14.46;88.21;98369.35;1609945;87;20983;-76
2021/07/23 00:35:09;;;;;;;17.30;10.65;;;;;;;14.40;89.22;98372.11;1609823;88;20960;-77
2021/07/23 00:37:35;;;;;;;21.15;11.93;;;;;;;14.46;89.06;98370.16;1609752;87;21092;-76
2021/07/23 00:40:01;;;;;;;10.75;8.68;;;;;;;14.50;88.71;98377.18;1610078;87;20945;-76
2021/07/23 00:42:38;;;;;;;13.18;8.90;;;;;;;14.50;88.71;98370.36;1609947;87;20934;-72
2021/07/23 00:45:05;;;;;;;12.60;9.45;;;;;;;14.51;88.18;98371.42;1610257;87;21528;-76
2021/07/23 00:47:31;;;;;;;15.90;9.08;;;;;;;14.54;88.43;98368.68;1610342;87;20972;-75
2021/07/23 00:49:58;;;;;;;14.60;9.03;;;;;;;14.58;87.85;98370.50;1578717;90;21363;-71
2021/07/23 00:52:24;;;;;;;16.62;10.93;;;;;;;14.55;88.38;98368.94;1609579;87;21051;-76
2021/07/23 00:54:50;;;;;;;21.85;10.43;;;;;;;14.53;87.92;98363.78;1609670;87;20976;-76
2021/07/23 00:57:16;;;;;;;13.83;10.50;;;;;;;14.47;88.69;98365.52;1610237;87;20955;-72
2021/07/23 00:59:42;;;;;;;12.78;9.28;;;;;;;14.45;88.80;98355.44;1609751;87;20877;-76
2021/07/23 01:02:07;;;;;;;25.30;8.68;;;;;;;14.44;89.10;98360.08;1610000;87;21366;-75
2021/07/23 01:04:33;;;;;;;15.58;9.68;;;;;;;14.47;87.79;98357.34;1609867;88;21562;-72
2021/07/23 01:06:59;;;;;;;15.78;9.45;;;;;;;14.42;88.40;98357.38;1609864;87;20952;-76
2021/07/23 01:09:25;;;;;;;27.35;14.87;;;;;;;14.38;88.84;98353.08;1611435;88;21012;-76
2021/07/23 01:11:51;;;;;;;18.12;10.60;;;;;;;14.34;89.82;98354.20;1609695;87;20877;-71
2021/07/23 01:14:17;;;;;;;19.12;10.72;;;;;;;14.40;89.36;98357.12;1609625;87;21371;-71
2021/07/23 01:16:44;;;;;;;14.15;9.73;;;;;;;14.40;89.08;98347.58;1609695;87;20919;-76
2021/07/23 01:19:10;;;;;;;14.50;10.60;;;;;;;14.45;89.63;98348.63;1578721;90;21408;-76
2021/07/23 01:21:36;;;;;;;15.40;10.23;;;;;;;14.52;89.13;98348.50;1607215;88;20889;-71
2021/07/23 01:24:02;;;;;;;16.90;10.35;;;;;;;14.51;89.37;98347.44;1587824;88;20889;-76
2021/07/23 01:26:28;;;;;;;18.95;9.90;;;;;;;14.53;88.57;98352.06;1605145;88;21103;-71
2021/07/23 01:28:54;;;;;;;17.42;8.85;;;;;;;14.53;88.22;98354.80;1606023;88;20920;-71
2021/07/23 01:31:20;;;;;;;14.38;9.68;;;;;;;14.54;88.69;98357.22;1605116;89;20912;-71
2021/07/23 01:33:46;;;;;;;14.13;9.68;;;;;;;14.57;88.87;98357.98;1605302;88;21072;-75
2021/07/23 01:36:12;;;;;;;14.65;8.68;;;;;;;14.61;88.40;98352.20;1605360;89;20987;-76
2021/07/23 01:38:38;;;;;;;13.55;9.40;;;;;;;14.61;87.88;98350.84;1604913;88;22018;-76
2021/07/23 01:41:03;;;;;;;13.18;9.18;;;;;;;14.61;88.61;98349.47;1578563;91;20984;-71
2021/07/23 01:43:29;;;;;;;16.75;8.93;;;;;;;14.61;89.26;98342.66;1605230;88;20960;-76
2021/07/23 01:45:57;;;;;;;14.68;8.95;;;;;;;14.62;89.27;98347.55;1605228;89;20917;-72
2021/07/23 01:48:23;;;;;;;17.32;10.08;;;;;;;14.64;88.43;98340.69;1605263;88;21482;-72
2021/07/23 01:50:49;;;;;;;16.55;9.90;;;;;;;14.63;89.07;98336.89;1605313;89;21166;-72
2021/07/23 01:53:15;;;;;;;12.07;9.13;;;;;;;14.65;88.64;98331.39;1605131;88;21060;-72
2021/07/23 01:55:42;;;;;;;12.28;9.73;;;;;;;14.62;88.74;98332.00;1605319;89;20905;-72
2021/07/23 01:58:12;;;;;;;12.78;9.13;;;;;;;14.60;88.77;98338.28;1606446;88;20969;-78
2021/07/23 02:00:38;;;;;;;13.78;8.60;;;;;;;14.63;88.54;98335.53;1605527;88;20961;-76
2021/07/23 02:03:03;;;;;;;14.63;9.08;;;;;;;14.65;88.20;98335.48;1606521;86;21467;-77
2021/07/23 02:05:29;;;;;;;16.42;9.75;;;;;;;14.68;87.92;98324.52;1609828;88;21664;-71
2021/07/23 02:07:55;;;;;;;16.55;9.65;;;;;;;14.67;88.36;98319.63;1610289;88;20886;-77
2021/07/23 02:10:21;;;;;;;16.80;9.98;;;;;;;14.69;88.36;98320.68;1610422;88;20863;-76
2021/07/23 02:12:47;;;;;;;13.80;9.98;;;;;;;14.73;88.19;98325.81;1583916;89;21677;-72
2021/07/23 02:15:13;;;;;;;14.58;9.85;;;;;;;14.74;88.38;98334.24;1585085;88;21931;-69
2021/07/23 02:17:39;;;;;;;18.37;9.60;;;;;;;14.78;87.66;98331.16;1622120;87;20856;-69
2021/07/23 02:20:06;;;;;;;17.82;10.68;;;;;;;14.76;87.30;98325.76;1629672;87;20920;-68
2021/07/23 02:30:31;;;;;;;15.75;10.08;;;;;;;14.79;88.42;98321.89;1607273;88;21000;-70
2021/07/23 02:33:03;;;;;;;13.40;10.28;;;;;;;14.83;87.18;98328.36;1557682;90;21075;-71
2021/07/23 02:35:29;;;;;;;15.13;10.05;;;;;;;14.77;87.26;98323.28;1579726;90;20964;-71
2021/07/23 02:37:55;;;;;;;9.78;7.97;;;;;;;14.73;87.94;98324.45;1603717;88;20935;-71
2021/07/23 02:40:21;;;;;;;13.55;8.73;;;;;;;14.71;87.85;98318.48;1580518;89;21518;-71
2021/07/23 02:42:47;;;;;;;12.65;7.95;;;;;;;14.70;86.96;98317.40;1606315;88;21182;-72
2021/07/23 02:45:13;;;;;;;14.87;9.50;;;;;;;14.66;86.75;98313.11;1606177;89;20899;-71
2021/07/23 02:47:39;;;;;;;16.25;10.23;;;;;;;14.63;88.38;98311.80;1606121;88;20958;-70
2021/07/23 02:50:05;;;;;;;13.32;9.30;;;;;;;14.64;88.28;98309.87;1606155;89;20930;-70
2021/07/23 02:52:31;;;;;;;13.80;8.48;;;;;;;14.63;88.07;98307.70;1606208;89;20983;-71
2021/07/23 02:54:57;;;;;;;11.43;7.97;;;;;;;14.60;88.85;98310.20;1606232;89;21270;-71
2021/07/23 02:57:23;;;;;;;16.57;8.15;;;;;;;14.61;87.86;98300.91;1606204;89;20940;-70
2021/07/23 02:59:49;;;;;;;19.37;8.63;;;;;;;14.59;88.40;98309.95;1606269;89;20902;-71
2021/07/23 03:02:15;;;;;;;17.07;10.88;;;;;;;14.59;87.50;98304.50;1606279;89;20891;-71
2021/07/23 03:04:41;;;;;;;10.40;7.92;;;;;;;14.53;88.61;98294.25;1606491;89;21006;-70
2021/07/23 03:07:07;;;;;;;11.53;8.38;;;;;;;14.55;88.30;98304.85;1606125;89;21252;-71
2021/07/23 03:09:33;;;;;;;8.88;6.90;;;;;;;14.55;87.35;98302.94;1602934;89;21463;-78
2021/07/23 03:11:59;;;;;;;14.35;8.68;;;;;;;14.48;88.34;98302.50;1604684;88;22147;-78
2021/07/23 03:14:25;;;;;;;13.48;8.88;;;;;;;14.49;87.78;98301.95;1604529;87;20903;-73
2021/07/23 03:16:51;;;;;;;14.13;9.75;;;;;;;14.43;89.20;98301.73;1605329;88;20970;-73
2021/07/23 03:19:17;;;;;;;14.55;8.73;;;;;;;14.45;89.12;98305.00;1606325;89;22036;-77
2021/07/23 03:21:43;;;;;;;16.15;9.60;;;;;;;14.51;89.79;98303.81;1605945;88;20902;-74
2021/07/23 03:24:09;;;;;;;12.63;7.85;;;;;;;14.57;87.94;98301.27;1579796;90;21011;-77
2021/07/23 03:26:34;;;;;;;12.93;9.18;;;;;;;14.54;87.84;98312.78;1606364;88;21021;-77
2021/07/23 03:29:02;;;;;;;25.70;10.65;;;;;;;14.54;88.41;98303.23;1584811;89;20927;-73
2021/07/23 03:31:30;;;;;;;16.10;10.60;;;;;;;14.60;88.01;98306.11;1605625;88;21969;-73
2021/07/23 03:33:56;;;;;;;17.80;10.25;;;;;;;14.66;87.51;98304.37;1605768;89;21021;-77
2021/07/23 03:36:22;;;;;;;14.10;9.75;;;;;;;14.66;87.54;98307.09;1606208;88;20889;-73
2021/07/23 03:38:48;;;;;;;15.13;10.15;;;;;;;14.70;87.41;98295.58;1605558;89;20918;-73
2021/07/23 03:41:14;;;;;;;18.00;11.30;;;;;;;14.71;87.44;98298.59;1605575;89;21077;-73
2021/07/23 03:43:40;;;;;;;18.15;9.48;;;;;;;14.76;87.84;98300.66;1606049;88;21024;-77
2021/07/23 03:46:06;;;;;;;14.58;8.80;;;;;;;14.80;88.14;98293.50;1579246;91;20976;-73
2021/07/23 03:48:31;;;;;;;13.45;8.18;;;;;;;14.80;87.97;98294.87;1605935;88;21609;-77
2021/07/23 03:50:57;;;;;;;16.15;10.30;;;;;;;14.79;87.60;98294.62;1579842;90;20944;-77
2021/07/23 03:53:25;;;;;;;15.20;9.60;;;;;;;14.78;87.22;98301.16;1606622;88;20981;-73
2021/07/23 03:55:51;;;;;;;12.70;8.63;;;;;;;14.77;86.92;98305.55;1605882;89;21217;-77
2021/07/23 03:58:17;;;;;;;15.48;9.40;;;;;;;14.69;87.24;98307.05;1606012;88;21046;-77
2021/07/23 04:00:43;;;;;;;18.20;10.28;;;;;;;14.70;89.00;98305.12;1606058;89;21590;-72
2021/07/23 04:03:09;;;;;;;13.40;9.28;;;;;;;14.79;88.34;98303.36;1606083;88;20911;-77
2021/07/23 04:05:35;;;;;;;13.38;8.55;;;;;;;14.83;88.27;98301.08;1580498;89;20980;-77
2021/07/23 04:08:01;;;;;;;18.80;8.55;;;;;;;14.88;87.90;98301.00;1606274;88;21331;-77
2021/07/23 04:10:26;;;;;;;15.08;9.13;;;;;;;14.92;88.08;98302.00;1606112;89;20898;-77
2021/07/23 04:12:52;;;;;;;16.02;8.98;;;;;;;14.94;88.60;98298.41;1606114;88;21077;-73
2021/07/23 04:15:20;;;;;;;15.75;9.13;;;;;;;15.00;87.60;98296.41;1586145;88;20847;-73
2021/07/23 04:17:46;;;;;;;14.07;9.80;;;;;;;15.02;87.78;98299.63;1614951;87;21529;-77
2021/07/23 04:20:13;;;;;;;11.38;9.00;;;;;;;15.10;87.38;98289.94;1579546;89;21094;-73
2021/07/23 04:22:39;;;;;;;17.62;10.88;;;;;;;15.15;87.56;98293.95;1579288;89;21385;-73
2021/07/23 04:25:07;;;;;;;14.87;11.63;;;;;;;15.20;87.77;98288.37;1579520;91;20956;-73
2021/07/23 04:27:33;;;;;;;23.60;13.60;;;;;;;15.29;86.96;98288.47;1555281;91;21461;-76
2021/07/23 04:29:59;;;;;;;17.52;10.03;;;;;;;15.30;86.71;98283.29;1579920;90;20896;-77
2021/07/23 04:32:25;;;;;;;13.10;9.68;;;;;;;15.35;86.13;98283.17;1579743;89;21258;-77
2021/07/23 04:34:51;;;;;;;13.38;9.50;;;;;;;15.37;86.11;98279.02;1579701;90;21365;-73
2021/07/23 04:37:17;;;;;;;13.55;9.60;;;;;;;15.42;85.73;98285.75;1579684;89;20975;-72
2021/07/23 04:39:43;;;;;;;17.40;9.10;;;;;;;15.37;85.95;98285.03;1579985;90;20876;-73
2021/07/23 04:42:10;;;;;;;11.83;8.43;;;;;;;15.40;86.38;98280.34;1579819;89;20944;-73
2021/07/23 04:44:35;;;;;;;17.35;10.00;;;;;;;15.45;86.04;98279.66;1579870;90;21408;-77
2021/07/23 04:47:02;;;;;;;14.13;10.78;;;;;;;15.49;86.33;98282.05;1579744;89;20912;-73
2021/07/23 04:49:28;;;;;;;15.30;10.45;;;;;;;15.56;85.85;98284.94;1579827;90;21408;-73
2021/07/23 04:51:54;;;;;;;14.05;9.40;;;;;;;15.64;86.13;98281.52;1579706;89;21092;-77
2021/07/23 04:54:20;;;;;;;13.45;9.80;;;;;;;15.71;85.93;98274.50;1579883;90;21524;-73
2021/07/23 04:56:50;;;;;;;15.93;9.95;;;;;;;15.87;85.75;98270.87;1579714;89;21244;-77
2021/07/23 04:59:14;;;;;;;14.15;9.83;;;;;;;16.11;85.08;98273.33;1579526;89;21028;-73
2021/07/23 05:01:40;;;;;;;16.42;9.53;;;;;;;16.17;85.18;98271.30;1579755;89;21108;-73
2021/07/23 05:04:06;;;;;;;14.20;10.15;;;;;;;16.25;84.59;98270.55;1580047;89;20959;-77
2021/07/23 05:06:33;;;;;;;17.45;9.78;;;;;;;16.33;84.04;98269.25;1579919;89;20964;-77
2021/07/23 05:08:58;;;;;;;11.93;9.83;;;;;;;16.40;83.78;98268.78;1559141;90;21501;-73
2021/07/23 05:11:24;;;;;;;14.65;9.53;;;;;;;16.52;83.55;98267.67;1579726;89;21605;-77
2021/07/23 05:13:50;;;;;;;14.65;9.15;;;;;;;16.60;83.66;98260.64;1579850;90;20993;-73
2021/07/23 05:16:16;;;;;;;12.13;8.63;;;;;;;16.74;83.80;98266.05;1579919;90;20955;-77
2021/07/23 05:18:42;;;;;;;14.05;9.73;;;;;;;16.89;83.15;98260.17;1579631;89;20940;-77
2021/07/23 05:21:10;;;;;;;13.90;10.03;;;;;;;16.96;82.69;98262.47;1579888;90;21207;-78
2021/07/23 05:23:39;;;;;;;13.70;10.30;;;;;;;17.02;82.53;98264.76;1579964;89;21080;-73
2021/07/23 05:26:05;;;;;;;13.98;9.65;;;;;;;17.08;81.83;98265.41;1579915;90;22214;-77
2021/07/23 05:28:32;;;;;;;14.90;10.63;;;;;;;17.11;81.66;98265.59;1579643;89;20976;-73
2021/07/23 05:30:59;;;;;;;17.37;9.95;;;;;;;17.16;81.27;98269.55;1579625;91;21402;-77
2021/07/23 05:33:26;;;;;;;12.50;8.83;;;;;;;17.18;80.87;98269.25;1579765;89;21074;-73
2021/07/23 05:35:52;;;;;;;14.75;9.35;;;;;;;17.24;80.68;98261.69;1579773;90;21027;-73
2021/07/23 05:38:18;;;;;;;13.78;8.90;;;;;;;17.35;80.55;98259.72;1579765;89;20924;-77
2021/07/23 05:40:44;;;;;;;12.45;8.85;;;;;;;17.35;80.63;98263.83;1579945;90;20948;-73
2021/07/23 05:43:10;;;;;;;13.93;9.83;;;;;;;17.48;80.10;98262.88;1579839;89;20900;-77
2021/07/23 05:45:39;;;;;;;16.00;11.25;;;;;;;17.56;79.34;98262.66;1579869;90;21500;-74
2021/07/23 05:48:06;;;;;;;12.95;9.35;;;;;;;17.64;78.04;98269.28;1579752;89;21072;-73
2021/07/23 05:50:32;;;;;;;17.57;10.20;;;;;;;17.65;77.49;98263.48;1579853;89;21035;-73
2021/07/23 05:52:58;;;;;;;17.27;9.98;;;;;;;17.67;77.62;98259.85;1579620;89;21429;-73
2021/07/23 05:55:24;;;;;;;14.85;9.78;;;;;;;17.72;77.77;98264.41;1579892;90;20860;-77
2021/07/23 05:57:50;;;;;;;20.35;10.75;;;;;;;17.83;76.39;98264.91;1579766;89;21253;-72
2021/07/23 06:00:17;;;;;;;16.65;9.90;;;;;;;17.79;76.63;98262.02;1579895;90;20955;-77
2021/07/23 06:02:42;;;;;;;14.83;10.13;;;;;;;17.91;76.19;98264.11;1579692;89;21113;-74
2021/07/23 06:05:09;;;;;;;14.53;9.28;;;;;;;18.07;76.18;98261.70;1579895;90;20892;-73
2021/07/23 06:07:38;;;;;;;15.88;9.63;;;;;;;18.20;75.75;98251.95;1579789;89;21492;-73
2021/07/23 06:10:04;;;;;;;;;;;;;;;18.30;76.44;98259.03;1582194;90;21885;-77
2021/07/23 06:12:30;;;;;;;12.88;9.85;;;;;;;18.59;75.97;98249.53;1579637;89;20157;-78
2021/07/23 06:14:56;;;;;;;12.63;9.55;;;;;;;18.94;75.07;98248.66;1579785;90;20884;-73
2021/07/23 06:17:22;;;;;;;12.47;8.45;;;;;;;19.15;73.04;98250.35;1579686;89;21510;-77
2021/07/23 06:19:48;;;;;;;11.30;8.70;;;;;;;19.18;71.96;98249.45;1579905;90;20908;-77
2021/07/23 06:22:17;;;;;;;13.83;8.68;;;;;;;19.16;71.28;98247.04;1579389;89;20960;-77
2021/07/23 06:24:42;;;;;;;10.53;7.80;;;;;;;19.14;71.20;98248.75;1579398;90;21421;-77
2021/07/23 06:27:07;;;;;;;14.93;9.70;;;;;;;19.24;70.21;98248.94;1579352;89;20900;-77
2021/07/23 06:29:33;;;;;;;13.10;7.87;;;;;;;19.21;70.26;98250.95;1559179;90;20935;-78
2021/07/23 06:31:59;;;;;;;14.78;9.03;;;;;;;19.23;70.55;98254.20;1579432;89;21535;-73
2021/07/23 06:34:25;;;;;;;12.03;8.98;;;;;;;19.19;70.84;98247.73;1579580;91;21395;-73
2021/07/23 06:36:51;;;;;;;14.68;9.98;;;;;;;19.22;70.26;98252.56;1558944;90;21510;-73
2021/07/23 06:39:17;;;;;;;14.93;9.88;;;;;;;19.28;70.10;98251.25;1579719;89;20932;-73
2021/07/23 06:41:43;;;;;;;13.62;9.35;;;;;;;19.51;69.71;98253.16;1580229;89;20976;-78
2021/07/23 06:44:09;;;;;;;13.28;8.83;;;;;;;19.62;69.79;98254.40;1580277;90;20920;-77
2021/07/23 06:46:35;;;;;;;16.07;8.60;;;;;;;19.79;68.74;98254.05;1580069;89;21197;-77
2021/07/23 06:49:00;;;;;;;10.93;8.55;;;;;;;19.93;67.58;98250.48;1580159;90;21540;-78
2021/07/23 06:51:26;;;;;;;13.28;8.88;;;;;;;20.07;67.33;98253.73;1580260;89;20949;-73
2021/07/23 06:53:52;;;;;;;13.88;8.55;;;;;;;20.03;67.21;98245.14;1580265;90;20964;-73
2021/07/23 06:56:18;;;;;;;12.25;7.20;;;;;;;20.20;67.92;98243.62;1580301;90;21060;-78
2021/07/23 06:58:44;;;;;;;9.33;7.70;;;;;;;20.49;67.50;98242.72;1580028;89;21261;-77
2021/07/23 07:01:12;;;;;;;11.95;8.53;;;;;;;20.57;67.58;98245.95;1580182;89;20929;-78
2021/07/23 07:03:38;;;;;;;13.53;7.83;;;;;;;20.64;67.08;98245.41;1579936;89;21494;-78
2021/07/23 07:06:04;;;;;;;10.25;8.15;;;;;;;20.83;67.12;98238.78;1580257;90;20925;-74
2021/07/23 07:08:31;;;;;;;12.40;8.40;;;;;;;20.92;65.48;98237.31;1579932;89;20913;-74
2021/07/23 07:10:56;;;;;;;12.50;8.35;;;;;;;21.14;66.35;98236.88;1580160;90;21329;-78
2021/07/23 07:13:22;;;;;;;13.35;8.25;;;;;;;21.32;65.76;98233.35;1579977;89;21112;-78
2021/07/23 07:15:48;;;;;;;13.05;8.25;;;;;;;21.63;64.01;98230.80;1591243;90;21635;-78
2021/07/23 07:18:14;;;;;;;9.63;7.53;;;;;;;21.73;64.19;98228.72;1586094;89;20960;-73
2021/07/23 07:20:40;;;;;;;12.47;7.30;;;;;;;21.73;63.77;98230.90;1586308;90;20940;-75
2021/07/23 07:23:06;;;;;;;15.40;10.23;;;;;;;22.09;63.48;98229.22;1623749;87;21795;-75
2021/07/23 07:25:32;;;;;;;12.30;9.28;;;;;;;22.18;61.47;98229.88;1624359;87;20973;-75
2021/07/23 07:27:58;;;;;;;10.68;7.30;;;;;;;22.61;62.56;98224.16;1624230;87;20945;-74
2021/07/23 07:30:25;;;;;;;13.85;7.25;;;;;;;22.83;60.58;98229.09;1624373;88;20957;-76
2021/07/23 07:32:51;;;;;;;11.75;8.00;;;;;;;23.22;60.01;98217.65;1624144;87;20974;-74
2021/07/23 07:35:17;;;;;;;9.45;7.47;;;;;;;23.90;60.36;98217.25;1624400;88;21192;-77
2021/07/23 07:37:43;;;;;;;9.15;7.17;;;;;;;24.35;59.07;98214.44;1624045;87;20930;-77
2021/07/23 07:40:10;;;;;;;10.58;6.90;;;;;;;24.50;58.07;98215.52;1624437;88;20860;-74
2021/07/23 07:42:36;;;;;;;9.65;7.17;;;;;;;24.76;57.34;98214.81;1624145;87;21462;-74
2021/07/23 07:45:02;;;;;;;11.55;6.60;;;;;;;25.06;56.48;98212.21;1624371;88;20898;-77
2021/07/23 07:47:28;;;;;;;8.83;6.28;;;;;;;25.10;55.41;98210.28;1624275;87;21030;-74
2021/07/23 07:49:54;;;;;;;7.97;6.60;;;;;;;25.85;53.67;98214.22;1624323;88;20961;-77
2021/07/23 07:52:20;;;;;;;12.15;7.12;;;;;;;25.62;52.30;98217.61;1624038;87;20955;-77
2021/07/23 07:54:46;;;;;;;8.93;7.00;;;;;;;25.18;51.64;98216.16;1624315;88;20894;-77
2021/07/23 07:57:12;;;;;;;9.85;6.50;;;;;;;24.76;54.29;98211.45;1624301;87;20938;-74
2021/07/23 07:59:38;;;;;;;11.83;6.35;;;;;;;24.76;54.29;98211.45;1624401;87;21043;-77
2021/07/23 08:02:09;;;;;;;6.92;5.70;;;;;;;25.35;52.46;98205.72;1624553;87;21044;-78
2021/07/23 08:04:36;;;;;;;11.00;6.50;;;;;;;26.04;52.41;98211.29;1624093;88;21050;-75
2021/07/23 08:07:07;;;;;;;8.90;6.00;;;;;;;26.58;51.35;98211.37;1624201;87;20990;-78
2021/07/23 08:09:52;;;;;;;13.72;8.48;;;;;;;27.10;49.23;98212.28;1624442;87;21439;-75
2021/07/23 08:12:21;;;;;;;13.32;8.83;;;;;;;27.43;48.04;98204.96;1624122;87;21076;-75
2021/07/23 08:14:47;;;;;;;7.28;6.08;;;;;;;27.69;47.17;98199.22;1626944;87;21017;-76
2021/07/23 08:17:13;;;;;;;7.10;6.37;;;;;;;28.00;46.34;98192.80;1638380;86;20940;-78
2021/07/23 08:19:39;;;;;;;6.78;4.97;;;;;;;28.30;44.41;98203.11;1638448;87;20932;-76
2021/07/23 08:22:05;;;;;;;6.75;4.87;;;;;;;28.54;44.69;98202.16;1638366;86;21578;-78
2021/07/23 08:24:32;;;;;;;7.87;5.30;;;;;;;28.73;42.64;98200.43;1635580;86;21862;-76
2021/07/23 08:26:58;;;;;;;5.95;4.53;;;;;;;27.88;41.32;98200.12;1635746;86;20970;-78
2021/07/23 08:29:24;;;;;;;7.10;5.20;;;;;;;27.31;43.90;98198.33;1635887;87;20969;-75
2021/07/23 08:31:50;;;;;;;7.40;4.50;;;;;;;27.85;43.24;98200.28;1635752;86;20965;-75
2021/07/23 08:34:16;;;;;;;7.17;4.92;;;;;;;27.85;42.53;98198.89;1635886;87;20914;-76
2021/07/23 08:36:42;;;;;;;5.75;4.62;;;;;;;28.46;42.81;98194.41;1635846;86;21147;-78
2021/07/23 08:39:08;;;;;;;10.55;4.90;;;;;;;29.17;40.92;98196.50;1635775;87;20928;-78
2021/07/23 08:41:35;;;;;;;7.72;4.67;;;;;;;29.56;41.25;98197.08;1635900;86;20897;-78
2021/07/23 08:44:03;;;;;;;4.90;3.98;;;;;;;30.18;37.23;98199.33;1626929;87;20969;-76
2021/07/23 08:46:29;;;;;;;5.70;4.40;;;;;;;30.03;37.41;98199.34;1636048;86;21009;-76
2021/07/23 08:48:56;;;;;;;8.23;4.80;;;;;;;30.38;35.95;98196.83;1635614;86;21058;-76
2021/07/23 08:51:22;;;;;;;9.95;4.00;;;;;;;30.57;36.08;98199.91;1617564;86;21045;-79
2021/07/23 08:53:48;;;;;;;4.40;3.37;;;;;;;31.09;34.77;98194.37;1635691;87;20981;-76
2021/07/23 08:56:14;;;;;;;5.55;4.08;;;;;;;31.73;32.87;98193.81;1635954;87;20937;-76
2021/07/23 08:58:40;;;;;;;6.92;4.33;;;;;;;31.77;32.37;98193.00;1635574;86;20881;-78
2021/07/23 09:01:06;;;;;;;6.05;4.60;;;;;;;31.65;31.45;98185.30;1635879;87;21204;-78
2021/07/23 09:03:33;;;;;;;9.88;5.20;;;;;;;30.46;34.17;98190.80;1635582;86;21567;-76
2021/07/23 09:06:17;;;;;;;8.50;4.60;;;;;;;31.58;33.51;98188.17;1635788;87;21053;-76
2021/07/23 09:08:51;;;;;;;6.15;4.17;;;;;;;31.41;34.24;98189.94;1635125;86;21023;-77
2021/07/23 09:11:27;;;;;;;8.40;4.47;;;;;;;31.16;32.52;98189.33;1635865;87;21061;-76
2021/07/23 09:14:12;;;;;;;5.72;4.37;;;;;;;31.21;32.97;98183.34;1635568;87;21333;-77
2021/07/23 09:16:38;;;;;;;8.03;4.20;;;;;;;31.93;31.36;98183.42;1618956;87;21053;-77
2021/07/23 09:19:08;;;;;;;5.40;4.03;;;;;;;31.93;30.80;98176.41;1614753;89;21032;-77
2021/07/23 09:21:37;;;;;;;8.80;4.87;;;;;;;32.39;30.88;98179.25;1614580;87;21062;-78
2021/07/23 09:24:06;;;;;;;4.67;3.62;;;;;;;32.01;30.82;98179.31;1614315;89;21081;-79
2021/07/23 09:26:43;;;;;;;5.53;3.90;;;;;;;32.68;30.37;98169.23;1614288;87;21263;-78
2021/07/23 09:29:09;;;;;;;5.95;3.87;;;;;;;32.13;30.88;98177.96;1614618;89;21264;-75
2021/07/23 09:31:35;;;;;;;10.88;4.42;;;;;;;32.00;31.37;98174.93;1614912;87;21518;-78
2021/07/23 09:34:03;;;;;;;6.55;3.90;;;;;;;32.92;30.39;98170.70;1614915;89;20911;-78
2021/07/23 09:36:29;;;;;;;5.20;3.90;;;;;;;33.48;29.30;98165.34;1614885;87;20986;-76
2021/07/23 09:39:05;;;;;;;7.70;3.85;;;;;;;34.20;27.41;98164.16;1614824;88;21277;-79
2021/07/23 09:41:31;;;;;;;4.75;4.05;;;;;;;34.50;26.79;98165.30;1614815;87;20986;-79
2021/07/23 09:44:07;;;;;;;4.70;4.20;;;;;;;35.08;24.97;98166.80;1579207;90;21008;-79
2021/07/23 09:46:37;;;;;;;7.95;4.70;;;;;;;33.42;28.50;98160.86;1579598;89;21015;-77
2021/07/23 09:49:26;;;;;;;4.22;3.83;;;;;;;32.65;29.28;98159.48;1578711;91;21083;-78
2021/07/23 09:51:55;;;;;;;6.58;4.72;;;;;;;32.78;28.58;98163.27;1579457;89;21173;-79
2021/07/23 09:54:21;;;;;;;7.03;5.35;;;;;;;32.27;28.35;98158.16;1579139;91;20957;-75
2021/07/23 09:56:48;;;;;;;7.45;4.60;;;;;;;32.45;30.33;98153.12;1579487;89;21582;-76
2021/07/23 09:59:46;;;;;;;6.10;4.30;;;;;;;33.11;28.29;98151.13;1579327;91;20996;-78
2021/07/23 10:02:17;;;;;;;5.65;4.17;;;;;;;34.48;27.33;98149.48;1579522;89;20993;-78
2021/07/23 10:04:56;;;;;;;6.87;5.28;;;;;;;35.54;25.50;98152.94;1580171;90;21043;-79
2021/07/23 10:07:25;;;;;;;6.80;4.70;;;;;;;35.32;25.58;98144.25;1579395;89;20936;-78
2021/07/23 10:09:52;;;;;;;5.12;4.62;;;;;;;36.13;25.04;98143.23;1579579;90;21397;-78
2021/07/23 10:12:18;;;;;;;8.03;4.78;;;;;;;36.05;23.27;98145.47;1579493;89;21022;-76
2021/07/23 10:14:47;;;;;;;10.82;4.60;;;;;;;35.51;25.55;98148.20;1579677;90;20904;-77
2021/07/23 10:17:13;;;;;;;5.90;4.78;;;;;;;33.96;27.33;98145.17;1589637;89;21051;-76
2021/07/23 10:19:40;;;;;;;11.38;5.08;;;;;;;32.74;28.65;98140.10;1590612;89;21398;-78
2021/07/23 10:22:06;;;;;;;8.98;5.00;;;;;;;30.98;32.12;98145.33;1624319;87;21054;-76
2021/07/23 10:24:35;;;;;;;7.97;5.15;;;;;;;33.21;29.16;98142.33;1624208;87;20962;-78
2021/07/23 10:27:04;;;;;;;;;;;;;;;34.07;28.05;98135.89;1628116;87;20991;-76
2021/07/23 10:29:41;;;;;;;10.70;5.25;;;;;;;34.00;27.81;98127.61;1624141;87;21138;-79
2021/07/23 10:32:29;;;;;;;7.17;4.95;;;;;;;33.61;29.08;98131.20;1624166;87;21411;-78
2021/07/23 10:35:01;;;;;;;7.12;4.67;;;;;;;32.67;30.39;98126.97;1623255;88;20974;-76
2021/07/23 10:37:38;;;;;;;7.03;4.83;;;;;;;30.79;32.02;98130.70;1624447;87;20984;-76
2021/07/23 10:40:13;;;;;;;5.47;4.92;;;;;;;29.46;34.73;98121.91;1624545;87;21062;-78
2021/07/23 10:42:43;;;;;;;7.75;5.50;;;;;;;28.64;36.54;98119.19;1624682;87;21117;-77
2021/07/23 10:45:16;;;;;;;7.37;5.10;;;;;;;28.02;37.91;98120.80;1624116;88;20981;-75
2021/07/23 10:47:46;;;;;;;17.12;11.43;;;;;;;27.40;38.95;98115.33;1619487;87;20970;-78
2021/07/23 10:50:30;;;;;;;8.73;5.15;;;;;;;27.26;38.91;98119.64;1624447;88;21054;-78
2021/07/23 10:52:56;;;;;;;9.20;6.05;;;;;;;26.91;39.90;98120.13;1624286;87;21046;-78
2021/07/23 10:55:28;;;;;;;8.53;5.60;;;;;;;26.50;42.12;98124.16;1624457;88;21941;-79
2021/07/23 10:58:11;;;;;;;8.60;5.42;;;;;;;25.85;43.21;98124.02;1624947;87;21497;-74
2021/07/23 11:00:55;;;;;;;5.62;4.25;;;;;;;25.49;44.54;98121.34;1624434;88;20995;-76
2021/07/23 11:03:42;;;;;;;7.05;5.33;;;;;;;25.41;43.94;98115.48;1624275;87;21002;-76
2021/07/23 11:06:29;;;;;;;7.42;5.87;;;;;;;24.81;45.98;98124.47;1624528;88;20983;-75
2021/07/23 11:09:02;;;;;;;12.68;5.28;;;;;;;24.74;47.35;98113.26;1624181;87;21501;-78
2021/07/23 11:11:27;;;;;;;9.00;6.03;;;;;;;24.61;47.18;98116.83;1623838;87;21013;-74
2021/07/23 11:13:53;;;;;;;7.85;5.22;;;;;;;25.29;45.85;98113.16;1624312;88;20962;-75
2021/07/23 11:16:27;;;;;;;8.98;6.00;;;;;;;25.81;44.44;98112.88;1616301;88;20995;-75
2021/07/23 11:19:00;;;;;;;10.88;5.37;;;;;;;27.72;40.48;98114.94;1605839;89;21047;-75
2021/07/23 11:21:35;;;;;;;7.47;5.50;;;;;;;29.34;38.26;98109.19;1606168;88;21178;-77
2021/07/23 11:24:04;;;;;;;8.33;5.15;;;;;;;28.43;39.30;98111.58;1579467;89;20997;-75
2021/07/23 11:26:29;;;;;;;8.68;5.30;;;;;;;28.06;39.93;98101.53;1605707;88;20983;-77
2021/07/23 11:28:56;;;;;;;10.98;5.42;;;;;;;26.92;40.09;98108.45;1579747;90;20849;-75
2021/07/23 11:31:34;;;;;;;9.55;5.40;;;;;;;26.82;41.00;98106.36;1606219;89;21424;-78
2021/07/23 11:34:25;;;;;;;12.50;6.20;;;;;;;26.65;41.38;98105.82;1606189;89;21175;-75
2021/07/23 11:36:52;;;;;;;9.33;6.03;;;;;;;27.03;41.09;98098.78;1606183;88;20947;-74